Terminal Aerodrome Forecast
Issued by NWS Raleigh/Durham, NC

Home | Current Version | Previous Version | Text Only | Print | Product List | Glossary On
Versions: 1 2 3 4 5 6 7 8 9 10 11 12 13 14 15 16 17 18 19 20 21 22 23 24 25
000
FTUS42 KRAH 080532
TAFGSO
TAF
KGSO 080532Z 0806/0906 VRB03KT P6SM OVC050
     FM080700 VRB03KT P6SM OVC025
      TEMPO 0809/0813 5SM -SHRA OVC015
     FM081300 33011KT P6SM BKN050
     FM081500 33011G20KT P6SM OVC100
     FM090000 31007KT P6SM SKC=

USA.gov is the U.S. government's official web portal to all federal, state and local government web resources and services.